createdAt,value
2019-02-10T08:19:27.979Z,50.68
2019-02-10T08:22:08.644Z,50.65
2019-02-10T08:24:40.435Z,50.51
2019-02-10T08:27:28.465Z,50.57
2019-02-10T08:30:03.279Z,50.48
2019-02-10T08:32:49.732Z,50.35
2019-02-10T08:35:33.431Z,50.44
2019-02-10T08:38:38.247Z,50.33
2019-02-10T08:41:27.870Z,50.24
2019-02-10T08:44:02.361Z,50.29
2019-02-10T08:46:50.808Z,50.25
2019-02-10T08:49:22.632Z,50.10
2019-02-10T08:52:09.313Z,50.00
2019-02-10T08:54:38.003Z,50.07
2019-02-10T08:57:06.650Z,50.16
2019-02-10T08:59:35.428Z,49.94
2019-02-10T09:02:04.116Z,50.03
2019-02-10T09:04:32.798Z,49.96
2019-02-10T09:07:01.406Z,49.95
2019-02-10T09:09:30.060Z,49.99
2019-02-10T09:11:58.723Z,49.98
2019-02-10T09:14:27.386Z,49.86
2019-02-10T09:16:56.128Z,49.92
2019-02-10T09:19:24.753Z,49.80
2019-02-10T09:21:53.500Z,49.92
2019-02-10T09:24:22.179Z,49.83
2019-02-10T09:26:50.850Z,49.93
2019-02-10T09:29:19.522Z,49.84
2019-02-10T09:31:48.186Z,49.93
2019-02-10T09:34:16.928Z,49.75
2019-02-10T09:36:45.619Z,49.83
2019-02-10T09:39:14.414Z,49.85
2019-02-10T09:41:43.067Z,49.74
2019-02-10T09:44:11.722Z,49.86
2019-02-10T09:46:40.384Z,49.67
2019-02-10T09:49:09.059Z,49.50
2019-02-10T09:51:37.837Z,49.55
2019-02-10T09:54:06.502Z,49.67
2019-02-10T09:56:35.178Z,49.40
2019-02-10T09:59:03.842Z,49.52
2019-02-10T10:01:32.506Z,49.52
2019-02-10T10:04:01.163Z,49.55
2019-02-10T10:06:29.815Z,49.43
2019-02-10T10:08:58.530Z,49.35
2019-02-10T10:11:27.200Z,49.49
2019-02-10T10:13:55.933Z,49.40
2019-02-10T10:16:24.606Z,49.33
2019-02-10T10:18:53.276Z,49.37
2019-02-10T10:21:21.924Z,49.31
2019-02-10T10:23:50.592Z,49.40
2019-02-10T10:26:19.436Z,49.34
2019-02-10T10:28:48.096Z,49.36
2019-02-10T10:31:16.911Z,49.29
2019-02-10T10:33:45.577Z,49.40
2019-02-10T10:36:14.258Z,49.37
2019-02-10T10:38:42.951Z,49.29
2019-02-10T10:41:11.615Z,49.42
2019-02-10T10:43:40.263Z,49.34
2019-02-10T10:46:13.052Z,49.44
2019-02-10T10:48:41.805Z,49.44
2019-02-10T10:51:10.461Z,49.39
2019-02-10T10:53:39.123Z,49.46
2019-02-10T10:56:07.790Z,49.28
2019-02-10T10:58:36.378Z,49.29
2019-02-10T11:01:05.132Z,49.33
2019-02-10T11:03:33.801Z,49.37
2019-02-10T11:06:02.502Z,49.20
2019-02-10T11:08:31.202Z,49.10
2019-02-10T11:10:59.802Z,49.17
2019-02-10T11:13:28.465Z,49.12
2019-02-10T11:15:57.356Z,49.14
2019-02-10T11:18:26.037Z,49.20
2019-02-10T11:20:54.720Z,49.14
2019-02-10T11:23:23.427Z,49.33
2019-02-10T11:25:52.081Z,49.18
2019-02-10T11:28:20.748Z,49.20
2019-02-10T11:30:49.439Z,49.18
2019-02-10T11:33:18.091Z,49.06
2019-02-10T11:35:46.833Z,49.13
2019-02-10T11:38:15.494Z,49.28
2019-02-10T11:40:44.232Z,49.15
2019-02-10T11:43:12.883Z,49.15
2019-02-10T11:45:41.541Z,49.17
2019-02-10T11:48:10.269Z,49.13
2019-02-10T11:50:38.926Z,49.28
2019-02-10T11:53:07.538Z,49.11
2019-02-10T11:55:36.201Z,49.06
2019-02-10T11:58:04.862Z,49.13
2019-02-10T12:00:33.548Z,49.25
2019-02-10T12:03:02.179Z,48.95
2019-02-10T12:05:30.967Z,49.20
2019-02-10T12:07:59.610Z,49.03
2019-02-10T12:10:28.355Z,49.15
2019-02-10T12:12:57.033Z,49.17
2019-02-10T12:15:25.673Z,49.26
2019-02-10T12:17:54.353Z,49.15
2019-02-10T12:20:22.943Z,48.87
2019-02-10T12:22:51.585Z,49.05
2019-02-10T12:25:20.259Z,49.03
2019-02-10T12:27:48.947Z,49.11
2019-02-10T12:30:17.896Z,49.02
2019-02-10T12:32:46.616Z,49.15
2019-02-10T12:35:15.282Z,49.11
2019-02-10T12:37:43.944Z,48.93
2019-02-10T12:40:12.774Z,48.85
2019-02-10T12:42:41.436Z,48.97
2019-02-10T12:45:14.431Z,49.10
2019-02-10T12:47:43.083Z,49.11
2019-02-10T12:50:13.255Z,49.07
2019-02-10T12:52:41.943Z,49.03
2019-02-10T12:55:11.511Z,49.03
2019-02-10T12:57:40.232Z,49.07
2019-02-10T13:00:18.602Z,49.13
2019-02-10T13:02:47.329Z,49.10
2019-02-10T13:05:15.985Z,49.02
2019-02-10T13:07:44.660Z,48.93
2019-02-10T13:10:18.396Z,48.90
2019-02-10T13:12:46.979Z,49.07
2019-02-10T13:15:15.635Z,48.97
2019-02-10T13:17:44.299Z,48.94
2019-02-10T13:20:13.661Z,48.99
2019-02-10T13:22:42.328Z,49.01
2019-02-10T13:25:14.977Z,49.26
2019-02-10T13:27:42.402Z,49.28
2019-02-10T13:30:18.852Z,49.18
2019-02-10T13:32:47.536Z,49.16
2019-02-10T13:35:16.198Z,49.12
2019-02-10T13:37:44.857Z,49.19
2019-02-10T13:40:16.918Z,49.15
2019-02-10T13:42:45.812Z,49.12
2019-02-10T13:45:14.573Z,49.13
2019-02-10T13:47:43.195Z,49.21
2019-02-10T13:50:16.838Z,49.28
2019-02-10T13:52:45.496Z,49.25
2019-02-10T13:55:16.230Z,49.24
2019-02-10T13:57:44.867Z,49.23
2019-02-10T14:00:18.816Z,49.19
2019-02-10T14:02:47.535Z,49.21
2019-02-10T14:05:16.204Z,49.14
2019-02-10T14:07:45.791Z,49.18
2019-02-10T14:10:25.361Z,50.66
2019-02-10T14:12:49.111Z,57.56
2019-02-10T14:15:21.309Z,54.60
2019-02-10T14:17:49.979Z,53.19
2019-02-10T14:20:20.427Z,52.55
2019-02-10T14:22:49.073Z,52.00
2019-02-10T14:25:17.742Z,51.63
2019-02-10T14:27:46.449Z,51.35
2019-02-10T14:30:18.229Z,51.16
2019-02-10T14:32:46.926Z,50.98
2019-02-10T14:35:15.664Z,50.89
2019-02-10T14:37:44.398Z,56.23
2019-02-10T14:40:13.084Z,57.67
2019-02-10T14:42:41.747Z,59.81
2019-02-10T14:45:14.578Z,55.74
2019-02-10T14:47:43.214Z,52.99
2019-02-10T14:50:18.783Z,52.57
2019-02-10T14:52:47.469Z,51.88
2019-02-10T14:55:16.165Z,51.93
2019-02-10T14:57:44.911Z,54.30
2019-02-10T15:00:16.649Z,53.09
2019-02-10T15:02:45.385Z,54.05
2019-02-10T15:05:14.030Z,54.33
2019-02-10T15:07:42.757Z,54.96
2019-02-10T15:10:16.524Z,55.03
2019-02-10T15:12:45.177Z,54.71
2019-02-10T15:15:13.838Z,55.35
2019-02-10T15:17:42.515Z,55.22
2019-02-10T15:20:13.130Z,55.23
2019-02-10T15:22:41.812Z,55.82
2019-02-10T15:25:12.169Z,56.19
2019-02-10T15:27:40.816Z,56.80
2019-02-10T15:30:15.284Z,56.30
2019-02-10T15:32:50.730Z,55.89
2019-02-10T15:35:19.418Z,56.90
2019-02-10T15:37:48.189Z,56.75
2019-02-10T15:40:16.849Z,56.11
2019-02-10T15:42:45.678Z,56.67
2019-02-10T15:45:14.532Z,57.68
2019-02-10T15:47:43.181Z,58.67
2019-02-10T15:50:15.070Z,59.79
2019-02-10T15:52:43.745Z,60.56
2019-02-10T15:55:13.405Z,60.34
2019-02-10T15:57:42.063Z,59.67
2019-02-10T16:00:13.962Z,59.05
2019-02-10T16:02:42.689Z,58.53
2019-02-10T16:05:11.339Z,58.64
2019-02-10T16:07:40.096Z,60.53
2019-02-10T16:10:10.652Z,60.13
2019-02-10T16:12:39.607Z,61.25
2019-02-10T16:15:10.572Z,62.58
2019-02-10T16:17:39.139Z,62.59
2019-02-10T16:20:16.888Z,62.80
2019-02-10T16:22:45.545Z,62.36
2019-02-10T16:25:14.315Z,62.97
2019-02-10T16:27:43.000Z,63.15
2019-02-10T16:30:14.051Z,62.96
2019-02-10T16:32:49.533Z,61.20
2019-02-10T16:35:13.124Z,60.51
2019-02-10T16:37:41.792Z,60.02
2019-02-10T16:40:13.303Z,59.63
2019-02-10T16:42:41.975Z,59.63
2019-02-10T16:45:11.978Z,59.55
2019-02-10T16:47:40.613Z,60.04
2019-02-10T16:50:12.028Z,60.17
2019-02-10T16:52:40.716Z,59.85
2019-02-10T16:55:14.501Z,59.00
2019-02-10T16:57:43.163Z,58.79
2019-02-10T17:00:14.558Z,59.22
2019-02-10T17:02:43.214Z,59.33
2019-02-10T17:05:12.170Z,59.26
2019-02-10T17:07:40.849Z,59.09
2019-02-10T17:10:15.332Z,58.55
2019-02-10T17:12:44.021Z,58.81
2019-02-10T17:15:13.084Z,58.18
2019-02-10T17:17:41.787Z,58.33
2019-02-10T17:20:12.361Z,58.81
2019-02-10T17:22:41.213Z,58.70
2019-02-10T17:25:12.921Z,58.60
2019-02-10T17:27:41.586Z,59.18
2019-02-10T17:30:14.866Z,60.58
2019-02-10T17:32:43.463Z,61.44
2019-02-10T17:35:13.464Z,62.25
2019-02-10T17:37:42.180Z,62.68
2019-02-10T17:40:28.846Z,62.00
2019-02-10T17:42:57.540Z,61.17
2019-02-10T17:45:26.212Z,60.77
2019-02-10T17:47:54.917Z,60.07
2019-02-10T17:50:23.570Z,60.45
2019-02-10T17:52:52.225Z,59.56
2019-02-10T17:55:20.880Z,59.73
2019-02-10T17:57:49.532Z,59.60
2019-02-10T18:00:20.091Z,60.49
2019-02-10T18:02:48.696Z,59.79
2019-02-10T18:05:17.359Z,59.16
2019-02-10T18:07:46.012Z,59.08
2019-02-10T18:10:15.484Z,59.42
2019-02-10T18:12:44.171Z,59.20
2019-02-10T18:15:14.414Z,59.30
2019-02-10T18:18:00.758Z,59.90
2019-02-10T18:20:39.899Z,59.66
2019-02-10T18:23:10.057Z,59.31
2019-02-10T18:25:46.037Z,60.87
2019-02-10T18:28:18.925Z,61.96
2019-02-10T18:31:01.284Z,62.02
2019-02-10T18:33:34.233Z,60.71
2019-02-10T18:36:04.457Z,60.42
2019-02-10T18:38:46.428Z,60.39
2019-02-10T18:41:22.565Z,60.34
2019-02-10T18:43:55.345Z,60.13
2019-02-10T18:46:25.545Z,62.12
2019-02-10T18:48:55.868Z,63.22
2019-02-10T18:51:26.095Z,64.43
2019-02-10T18:53:56.318Z,63.03
2019-02-10T18:56:26.551Z,62.14
2019-02-10T18:58:59.522Z,60.81
2019-02-10T19:01:44.643Z,60.02
2019-02-10T19:04:23.781Z,60.24
2019-02-10T19:07:09.204Z,61.02
2019-02-10T19:09:39.500Z,62.49
2019-02-10T19:12:12.209Z,62.99
2019-02-10T19:14:44.417Z,61.68
2019-02-10T19:17:14.330Z,60.37
2019-02-10T19:19:44.558Z,59.95
2019-02-10T19:22:20.727Z,59.26
2019-02-10T19:24:59.817Z,58.95
2019-02-10T19:27:35.903Z,58.70
2019-02-10T19:30:13.708Z,58.53
2019-02-10T19:32:46.678Z,58.60
2019-02-10T19:35:16.946Z,58.21
2019-02-10T19:38:02.069Z,58.15
2019-02-10T19:40:41.402Z,58.24
2019-02-10T19:43:14.639Z,57.96
2019-02-10T19:45:44.862Z,57.97
2019-02-10T19:48:15.132Z,57.85
2019-02-10T19:50:45.568Z,57.63
2019-02-10T19:53:22.395Z,57.79
2019-02-10T19:55:59.161Z,57.71
2019-02-10T19:58:32.500Z,57.55
2019-02-10T20:01:18.047Z,57.57
2019-02-10T20:04:03.388Z,57.50
2019-02-10T20:06:36.719Z,57.71
2019-02-10T20:09:25.387Z,57.76
2019-02-10T20:12:03.983Z,57.51
2019-02-10T20:14:30.431Z,57.55
2019-02-10T20:17:06.360Z,57.20
2019-02-10T20:19:52.527Z,57.55
2019-02-10T20:22:28.927Z,57.68
2019-02-10T20:24:59.179Z,57.39
2019-02-10T20:27:47.515Z,58.73
2019-02-10T20:30:29.526Z,59.62
2019-02-10T20:32:59.785Z,58.17
2019-02-10T20:35:35.797Z,57.65
2019-02-10T20:38:22.191Z,57.45
2019-02-10T20:40:55.051Z,57.21
2019-02-10T20:43:27.985Z,57.05
2019-02-10T20:46:06.885Z,57.00
2019-02-10T20:48:37.113Z,57.20
2019-02-10T20:51:13.351Z,56.94
2019-02-10T20:53:46.364Z,56.79
2019-02-10T20:56:16.586Z,56.69
2019-02-10T20:58:52.545Z,56.50
2019-02-10T21:01:28.470Z,56.39
2019-02-10T21:04:01.400Z,56.45
2019-02-10T21:06:43.892Z,56.47
2019-02-10T21:09:20.030Z,56.59
2019-02-10T21:12:08.398Z,56.55
2019-02-10T21:14:41.382Z,56.65
2019-02-10T21:17:17.612Z,56.54
2019-02-10T21:19:50.640Z,56.55
2019-02-10T21:22:20.862Z,56.30
2019-02-10T21:24:54.062Z,56.80
2019-02-10T21:27:24.290Z,56.48
2019-02-10T21:29:54.519Z,56.37
2019-02-10T21:32:24.739Z,56.26
2019-02-10T21:34:57.927Z,56.35
2019-02-10T21:37:31.107Z,56.62
2019-02-10T21:40:16.538Z,56.45
2019-02-10T21:42:49.500Z,56.49
2019-02-10T21:45:22.546Z,56.44
2019-02-10T21:47:52.775Z,56.70
2019-02-10T21:50:21.454Z,56.49
2019-02-10T21:52:50.116Z,56.37
2019-02-10T21:55:18.776Z,56.38
2019-02-10T21:57:47.519Z,56.35
2019-02-10T22:00:16.277Z,56.04
2019-02-10T22:02:44.993Z,56.26
2019-02-10T22:05:13.650Z,56.33
2019-02-10T22:07:42.325Z,56.28
2019-02-10T22:10:12.108Z,56.35
2019-02-10T22:12:40.673Z,56.16
2019-02-10T22:15:10.473Z,56.14
2019-02-10T22:17:39.058Z,56.19
2019-02-10T22:20:10.785Z,56.38
2019-02-10T22:22:39.439Z,56.41
2019-02-10T22:25:10.506Z,56.36
2019-02-10T22:27:39.157Z,56.33
2019-02-10T22:30:15.379Z,56.27
2019-02-10T22:32:44.070Z,56.24
2019-02-10T22:35:12.722Z,56.43
2019-02-10T22:37:41.453Z,56.12
2019-02-10T22:40:11.726Z,56.29
2019-02-10T22:42:45.397Z,56.38
2019-02-10T22:45:12.409Z,56.60
2019-02-10T22:47:41.099Z,56.83
2019-02-10T22:50:12.851Z,56.91
2019-02-10T22:52:41.522Z,56.62
2019-02-10T22:55:10.394Z,56.55
2019-02-10T22:57:41.038Z,56.34
2019-02-10T23:00:16.924Z,56.31
2019-02-10T23:02:45.713Z,56.44
2019-02-10T23:05:14.360Z,56.00
2019-02-10T23:07:42.958Z,56.38
2019-02-10T23:10:11.482Z,56.39
2019-02-10T23:12:40.078Z,56.40
2019-02-10T23:15:08.741Z,56.38
2019-02-10T23:17:37.401Z,56.42
2019-02-10T23:20:06.658Z,56.74
2019-02-10T23:22:35.319Z,56.30
2019-02-10T23:25:04.084Z,56.61
2019-02-10T23:27:32.733Z,56.45
2019-02-10T23:30:01.387Z,56.64
2019-02-10T23:32:30.058Z,56.50
2019-02-10T23:34:58.656Z,56.34
2019-02-10T23:37:27.304Z,56.34
2019-02-10T23:39:55.973Z,56.48
2019-02-10T23:42:24.581Z,56.39
2019-02-10T23:44:53.249Z,56.39
2019-02-10T23:47:23.082Z,56.40
2019-02-10T23:49:51.775Z,56.39
2019-02-10T23:52:20.439Z,56.38
2019-02-10T23:54:49.234Z,56.67
2019-02-10T23:57:17.878Z,56.45
2019-02-10T23:59:46.611Z,56.46
